createdAt,value
2018-06-08T00:08:23.559Z,24.85
2018-06-08T00:10:52.294Z,25.20
2018-06-08T00:13:20.867Z,22.98
2018-06-08T00:15:49.433Z,25.62
2018-06-08T00:18:17.972Z,26.13
2018-06-08T00:20:46.540Z,26.03
2018-06-08T00:23:15.671Z,28.45
2018-06-08T00:25:44.133Z,26.93
2018-06-08T00:28:13.543Z,30.30
2018-06-08T00:30:42.075Z,28.13
2018-06-08T00:33:10.596Z,27.48
2018-06-08T00:35:39.133Z,26.75
2018-06-08T00:38:07.632Z,28.87
2018-06-08T00:40:36.104Z,28.77
2018-06-08T00:43:05.380Z,34.60
2018-06-08T00:45:34.791Z,34.20
2018-06-08T00:48:03.267Z,35.23
2018-06-08T00:50:31.964Z,35.73
2018-06-08T00:53:00.446Z,35.65
2018-06-08T00:55:29.063Z,37.27
2018-06-08T00:57:57.595Z,34.90
2018-06-08T01:00:26.106Z,34.53
2018-06-08T01:02:54.574Z,35.37
2018-06-08T01:05:23.140Z,34.20
2018-06-08T01:07:52.675Z,35.52
2018-06-08T01:10:21.764Z,32.90
2018-06-08T01:12:50.882Z,33.93
2018-06-08T01:15:19.441Z,32.57
2018-06-08T01:17:47.923Z,32.90
2018-06-08T01:20:16.973Z,35.40
2018-06-08T01:22:45.544Z,34.43
2018-06-08T01:25:14.084Z,34.93
2018-06-08T01:27:43.641Z,33.35
2018-06-08T01:30:12.177Z,35.47
2018-06-08T01:32:40.631Z,37.63
2018-06-08T01:35:09.184Z,35.50
2018-06-08T01:37:37.696Z,33.28
2018-06-08T01:40:06.203Z,31.93
2018-06-08T01:42:34.731Z,34.50
2018-06-08T01:45:03.272Z,34.88
2018-06-08T01:47:32.495Z,33.33
2018-06-08T01:50:01.011Z,35.27
2018-06-08T01:52:29.471Z,35.30
2018-06-08T01:54:58.916Z,34.50
2018-06-08T01:57:28.420Z,34.43
2018-06-08T01:59:57.739Z,34.87
2018-06-08T02:02:26.546Z,35.57
2018-06-08T02:04:55.339Z,36.42
2018-06-08T02:07:23.958Z,34.37
2018-06-08T02:09:53.333Z,33.60
2018-06-08T02:12:22.275Z,35.70
2018-06-08T02:14:50.748Z,35.60
2018-06-08T02:17:19.328Z,34.37
2018-06-08T02:19:47.807Z,36.23
2018-06-08T02:22:17.376Z,35.85
2018-06-08T02:24:46.590Z,37.17
2018-06-08T02:27:15.267Z,38.30
2018-06-08T02:29:43.796Z,40.20
2018-06-08T02:32:12.312Z,41.60
2018-06-08T02:34:40.924Z,40.73
2018-06-08T02:37:10.461Z,42.80
2018-06-08T02:39:38.967Z,42.27
2018-06-08T02:42:07.705Z,44.60
2018-06-08T02:44:36.219Z,43.30
2018-06-08T02:47:05.145Z,39.47
2018-06-08T02:49:34.189Z,40.10
2018-06-08T02:52:02.801Z,41.35
2018-06-08T02:54:35.083Z,41.57
2018-06-08T02:57:04.135Z,39.75
2018-06-08T02:59:32.863Z,41.17
2018-06-08T03:02:01.363Z,40.27
2018-06-08T03:04:30.832Z,41.03
2018-06-08T03:06:59.523Z,40.63
2018-06-08T03:09:28.245Z,38.67
2018-06-08T03:11:56.898Z,39.90
2018-06-08T03:14:25.469Z,37.73
2018-06-08T03:16:53.959Z,36.00
2018-06-08T03:19:23.090Z,37.67
2018-06-08T03:21:51.643Z,34.30
2018-06-08T03:24:21.458Z,33.40
2018-06-08T03:26:50.040Z,32.20
2018-06-08T03:29:18.540Z,33.97
2018-06-08T03:31:47.172Z,31.90
2018-06-08T03:34:15.965Z,31.60
2018-06-08T03:36:45.163Z,31.80
2018-06-08T03:39:19.627Z,34.77
2018-06-08T03:41:50.135Z,35.47
2018-06-08T03:44:19.080Z,31.30
2018-06-08T03:46:47.760Z,34.10
2018-06-08T03:49:16.315Z,34.23
2018-06-08T03:51:44.891Z,33.13
2018-06-08T03:54:15.655Z,35.27
2018-06-08T03:56:48.241Z,34.07
2018-06-08T03:59:19.057Z,33.80
2018-06-08T04:01:48.237Z,33.30
2018-06-08T04:04:16.810Z,32.97
2018-06-08T04:06:45.386Z,35.03
2018-06-08T04:09:13.986Z,33.20
2018-06-08T04:11:42.497Z,33.65
2018-06-08T04:14:10.992Z,36.00
2018-06-08T04:16:39.484Z,34.80
2018-06-08T04:19:11.707Z,31.77
2018-06-08T04:21:40.503Z,31.20
2018-06-08T04:24:08.695Z,31.40
2018-06-08T04:26:37.456Z,31.67
2018-06-08T04:29:06.623Z,31.50
2018-06-08T04:31:35.102Z,29.93
2018-06-08T04:34:04.248Z,33.30
2018-06-08T04:36:33.559Z,30.60
2018-06-08T04:39:02.222Z,33.80
2018-06-08T04:41:31.418Z,31.23
2018-06-08T04:43:59.947Z,31.87
2018-06-08T04:46:30.953Z,35.43
2018-06-08T04:48:59.686Z,35.00
2018-06-08T04:51:29.471Z,34.47
2018-06-08T04:54:00.796Z,36.40
2018-06-08T04:56:30.911Z,34.25
2018-06-08T04:58:59.711Z,34.67
2018-06-08T05:01:31.911Z,34.87
2018-06-08T05:04:01.275Z,33.90
2018-06-08T05:06:31.590Z,30.97
2018-06-08T05:09:38.899Z,30.43
2018-06-08T05:12:09.449Z,30.48
2018-06-08T05:14:46.857Z,31.23
2018-06-08T05:17:20.797Z,32.97
2018-06-08T05:19:52.406Z,32.53
2018-06-08T05:22:30.666Z,33.63
2018-06-08T05:24:59.559Z,32.50
2018-06-08T05:27:28.716Z,33.40
2018-06-08T05:31:01.325Z,33.63
2018-06-08T05:36:38.711Z,31.50
2018-06-08T05:39:09.523Z,30.93
2018-06-08T05:41:38.418Z,31.00
2018-06-08T05:44:08.260Z,31.70
2018-06-08T05:46:36.851Z,31.10
2018-06-08T05:53:35.662Z,30.97
2018-06-08T05:56:04.329Z,29.07
2018-06-08T05:58:34.299Z,29.10
2018-06-08T06:01:04.350Z,29.30
2018-06-08T06:03:33.191Z,28.95
2018-06-08T06:06:01.936Z,26.80
2018-06-08T06:08:31.307Z,26.77
2018-06-08T06:11:00.069Z,28.55
2018-06-08T06:13:28.905Z,26.27
2018-06-08T06:15:57.740Z,25.70
2018-06-08T06:18:26.453Z,27.87
2018-06-08T06:20:55.654Z,28.10
2018-06-08T06:23:25.206Z,28.37
2018-06-08T06:25:54.878Z,26.23
2018-06-08T06:28:24.083Z,28.38
2018-06-08T06:30:52.860Z,28.00
2018-06-08T06:33:22.035Z,24.67
2018-06-08T06:35:51.160Z,26.87
2018-06-08T06:38:20.712Z,26.50
2018-06-08T06:40:50.117Z,25.90
2018-06-08T06:43:20.228Z,26.30
2018-06-08T06:45:49.737Z,25.40
2018-06-08T06:48:19.683Z,26.27
2018-06-08T06:50:49.742Z,26.07
2018-06-08T06:53:19.186Z,25.17
2018-06-08T06:55:48.793Z,25.37
2018-06-08T06:58:18.746Z,26.30
2018-06-08T07:00:48.510Z,27.40
2018-06-08T07:03:18.783Z,26.00
2018-06-08T07:05:48.711Z,26.43
2018-06-08T07:08:18.664Z,23.53
2018-06-08T07:10:48.763Z,24.15
2018-06-08T07:13:19.053Z,24.60
2018-06-08T07:15:49.078Z,23.27
2018-06-08T07:18:19.222Z,24.27
2018-06-08T07:20:49.269Z,23.17
2018-06-08T07:23:19.337Z,22.50
2018-06-08T07:25:49.194Z,22.07
2018-06-08T07:28:19.256Z,21.10
2018-06-08T07:30:49.449Z,23.52
2018-06-08T07:33:19.737Z,24.47
2018-06-08T07:35:49.835Z,22.60
2018-06-08T07:38:19.893Z,24.45
2018-06-08T07:40:50.018Z,23.10
2018-06-08T09:17:42.585Z,11.73
2018-06-08T09:26:59.557Z,11.40
2018-06-08T09:29:40.590Z,13.20
2018-06-08T09:32:23.651Z,11.90
2018-06-08T09:35:16.098Z,11.87
2018-06-08T09:40:55.822Z,13.07
2018-06-08T09:43:45.740Z,14.73
2018-06-08T09:47:08.501Z,12.80
2018-06-08T09:49:48.625Z,13.17
2018-06-08T09:52:58.833Z,10.90
2018-06-08T09:58:17.853Z,11.57
2018-06-08T10:00:46.829Z,12.47
2018-06-08T10:03:15.592Z,12.17
2018-06-08T10:05:44.495Z,11.37
2018-06-08T10:08:13.041Z,12.90
2018-06-08T10:10:47.844Z,11.60
2018-06-08T10:13:17.319Z,12.37
2018-06-08T10:15:46.023Z,12.55
2018-06-08T10:18:15.296Z,11.85
2018-06-08T10:20:45.955Z,11.70
2018-06-08T10:23:15.484Z,12.07
2018-06-08T10:25:45.816Z,13.00
2018-06-08T10:28:14.704Z,12.03
2018-06-08T10:30:44.865Z,11.80
2018-06-08T10:33:13.341Z,11.00
2018-06-08T10:35:43.303Z,11.35
2018-06-08T10:40:46.811Z,10.27
2018-06-08T10:43:15.890Z,10.48
2018-06-08T10:45:45.751Z,11.10
2018-06-08T10:48:16.151Z,11.40
2018-06-08T10:50:45.428Z,11.20
2018-06-08T10:53:15.298Z,10.10
2018-06-08T10:55:44.028Z,10.13
2018-06-08T10:58:12.745Z,8.63
2018-06-08T11:00:42.261Z,11.17
2018-06-08T11:03:11.199Z,9.35
2018-06-08T11:05:39.949Z,9.90
2018-06-08T11:08:08.533Z,10.07
2018-06-08T11:10:38.774Z,9.50
2018-06-08T11:13:07.794Z,8.97
2018-06-08T11:15:36.626Z,8.58
2018-06-08T11:18:06.319Z,9.23
2018-06-08T11:20:36.408Z,9.27
2018-06-08T11:23:06.099Z,9.67
2018-06-08T11:25:34.769Z,9.00
2018-06-08T11:28:03.933Z,9.90
2018-06-08T11:30:32.732Z,11.23
2018-06-08T11:33:05.737Z,10.70
2018-06-08T11:35:35.612Z,9.58
2018-06-08T11:38:04.968Z,9.80
2018-06-08T11:40:35.515Z,10.47
2018-06-08T11:43:04.648Z,10.65
2018-06-08T11:45:38.995Z,10.70
2018-06-08T11:48:08.903Z,9.57
2018-06-08T11:50:37.431Z,10.30
2018-06-08T11:53:07.341Z,9.67
2018-06-08T11:55:36.569Z,7.72
2018-06-08T11:58:08.186Z,7.03
2018-06-08T12:00:37.236Z,7.97
2018-06-08T12:03:07.717Z,7.00
2018-06-08T12:05:37.464Z,7.90
2018-06-08T12:08:07.355Z,7.97
2018-06-08T12:10:37.435Z,7.78
2018-06-08T12:13:11.288Z,7.50
2018-06-08T12:15:42.553Z,6.67
2018-06-08T12:18:16.784Z,7.50
2018-06-08T12:20:56.317Z,6.80
2018-06-08T12:23:32.341Z,7.85
2018-06-08T12:26:08.824Z,7.53
2018-06-08T12:28:38.034Z,7.92
2018-06-08T12:37:13.009Z,6.67
2018-06-08T12:39:42.820Z,6.97
2018-06-08T12:42:12.220Z,7.10
2018-06-08T12:44:41.236Z,7.37
2018-06-08T12:47:10.770Z,7.23
2018-06-08T12:49:39.913Z,8.27
2018-06-08T12:52:09.003Z,8.07
2018-06-08T12:54:41.221Z,7.63
2018-06-08T12:57:11.386Z,7.65
2018-06-08T12:59:40.748Z,7.55
2018-06-08T13:02:15.606Z,6.47
2018-06-08T13:04:47.360Z,6.63
2018-06-08T13:07:21.609Z,7.10
2018-06-08T13:09:54.678Z,6.53
2018-06-08T13:15:28.610Z,5.80
2018-06-08T13:18:00.247Z,6.03
2018-06-08T13:20:34.087Z,7.00
2018-06-08T13:23:02.636Z,7.10
2018-06-08T13:25:31.228Z,7.83
2018-06-08T13:27:59.702Z,8.00
2018-06-08T13:30:28.207Z,7.47
2018-06-08T13:32:56.927Z,8.80
2018-06-08T13:35:25.478Z,8.73
2018-06-08T13:37:54.006Z,7.73
2018-06-08T13:40:22.550Z,7.50
2018-06-08T13:42:51.301Z,7.70
2018-06-08T13:45:19.793Z,7.67
2018-06-08T13:47:48.301Z,7.60
2018-06-08T13:50:16.930Z,7.10
2018-06-08T13:52:45.508Z,8.70
2018-06-08T13:55:14.321Z,7.60
2018-06-08T13:57:42.975Z,6.83
2018-06-08T14:00:11.563Z,7.80
2018-06-08T14:02:40.091Z,6.73
2018-06-08T14:05:08.620Z,6.40
2018-06-08T14:07:37.129Z,6.90
2018-06-08T14:10:05.591Z,6.70
2018-06-08T14:12:34.090Z,6.33
2018-06-08T14:15:02.658Z,6.83
2018-06-08T14:17:31.274Z,6.70
2018-06-08T14:19:59.794Z,7.23
2018-06-08T14:22:29.011Z,7.10
2018-06-08T14:25:04.269Z,7.30
2018-06-08T14:27:33.063Z,7.37
2018-06-08T14:30:01.570Z,7.50
2018-06-08T14:32:36.512Z,7.70
2018-06-08T14:35:05.358Z,7.40
2018-06-08T14:37:33.932Z,7.03
2018-06-08T14:40:02.597Z,7.60
2018-06-08T14:42:31.376Z,7.33
2018-06-08T14:45:00.285Z,7.37
2018-06-08T14:47:28.909Z,8.43
2018-06-08T14:49:58.006Z,7.40
2018-06-08T14:52:26.506Z,6.50
2018-06-08T14:54:55.123Z,5.93
2018-06-08T14:57:23.831Z,6.20
2018-06-08T14:59:52.356Z,6.70
2018-06-08T15:02:20.891Z,6.30
2018-06-08T15:04:49.389Z,7.03
2018-06-08T15:07:17.897Z,6.30
2018-06-08T15:09:47.030Z,6.55
2018-06-08T15:12:15.546Z,6.00
2018-06-08T15:14:44.084Z,6.77
2018-06-08T15:17:13.475Z,6.50
2018-06-08T15:19:42.090Z,6.57
2018-06-08T15:22:10.701Z,6.47
2018-06-08T15:24:39.299Z,7.77
2018-06-08T15:27:07.904Z,7.42
2018-06-08T15:29:36.392Z,7.80
2018-06-08T15:32:04.974Z,7.53
2018-06-08T15:34:33.536Z,7.00
2018-06-08T15:37:02.098Z,7.23
2018-06-08T15:39:30.630Z,7.00
2018-06-08T15:41:59.176Z,7.30
2018-06-08T15:44:27.688Z,7.40
2018-06-08T15:46:56.819Z,7.90
2018-06-08T15:49:25.335Z,7.80
2018-06-08T15:51:53.929Z,7.87
2018-06-08T15:54:22.605Z,6.93
2018-06-08T15:56:51.233Z,8.10
2018-06-08T15:59:19.732Z,7.70
2018-06-08T16:01:48.291Z,7.80
2018-06-08T16:04:16.826Z,7.47
2018-06-08T16:06:45.751Z,7.80
2018-06-08T16:09:14.257Z,7.93
2018-06-08T16:11:42.739Z,7.83
2018-06-08T16:14:11.260Z,7.67
2018-06-08T16:16:39.785Z,7.77
2018-06-08T16:19:08.410Z,7.83
2018-06-08T16:21:37.387Z,8.30
2018-06-08T16:24:06.085Z,7.50
2018-06-08T16:26:34.726Z,8.10
2018-06-08T16:29:03.240Z,8.33
2018-06-08T16:31:32.728Z,8.20
2018-06-08T16:34:01.418Z,7.83
2018-06-08T16:36:29.956Z,7.60
2018-06-08T16:38:59.454Z,7.80
2018-06-08T16:41:28.136Z,8.30
2018-06-08T16:43:56.634Z,7.90
2018-06-08T16:46:24.855Z,8.55
2018-06-08T16:48:54.635Z,8.33
2018-06-08T16:51:23.399Z,7.50
2018-06-08T16:53:52.085Z,7.12
2018-06-08T16:56:20.632Z,7.37
2018-06-08T16:58:49.220Z,7.57
2018-06-08T17:01:18.625Z,7.43
2018-06-08T17:03:47.166Z,7.63
2018-06-08T17:06:16.353Z,7.80
2018-06-08T17:08:46.193Z,6.37
2018-06-08T17:11:14.789Z,7.43
2018-06-08T17:13:43.300Z,7.80
2018-06-08T17:16:12.551Z,7.80
2018-06-08T17:18:41.230Z,7.97
2018-06-08T17:21:09.987Z,8.47
2018-06-08T17:23:39.411Z,7.83
2018-06-08T17:26:08.895Z,7.87
2018-06-08T17:28:38.075Z,8.23
2018-06-08T17:31:06.845Z,8.35
2018-06-08T17:33:35.410Z,7.57
2018-06-08T17:36:03.927Z,7.50
2018-06-08T17:38:37.529Z,7.53
2018-06-08T17:41:07.341Z,8.50
2018-06-08T17:49:12.040Z,8.10
2018-06-08T17:51:40.643Z,9.13
2018-06-08T17:54:10.283Z,8.30
2018-06-08T17:56:39.685Z,8.57
2018-06-08T17:59:08.249Z,8.10
2018-06-08T18:01:36.798Z,8.03
2018-06-08T18:04:05.423Z,8.63
2018-06-08T18:06:34.015Z,8.13
2018-06-08T18:09:02.881Z,8.20
2018-06-08T18:11:31.450Z,8.73
2018-06-08T18:14:00.060Z,8.40
2018-06-08T18:16:28.563Z,8.50
2018-06-08T18:18:57.077Z,8.50
2018-06-08T18:21:25.691Z,8.00
2018-06-08T18:23:54.259Z,8.60
2018-06-08T18:26:22.761Z,7.43
2018-06-08T18:28:51.655Z,8.03
2018-06-08T18:31:20.152Z,7.17
2018-06-08T18:33:49.597Z,8.10
2018-06-08T18:36:18.232Z,7.70
2018-06-08T18:38:46.865Z,7.97
2018-06-08T18:41:15.402Z,8.33
2018-06-08T18:43:43.974Z,8.57
2018-06-08T18:46:12.931Z,8.68
2018-06-08T18:48:41.513Z,9.10
2018-06-08T18:51:10.237Z,9.10
2018-06-08T18:53:38.803Z,8.97
2018-06-08T18:56:07.343Z,9.10
2018-06-08T18:58:36.007Z,8.30
2018-06-08T19:01:04.897Z,8.60
2018-06-08T19:03:33.530Z,9.37
2018-06-08T19:06:02.179Z,9.18
2018-06-08T19:08:32.028Z,9.33
2018-06-08T19:11:00.665Z,8.50
2018-06-08T19:13:29.524Z,9.10
2018-06-08T19:15:58.129Z,9.57
2018-06-08T19:18:26.916Z,8.73
2018-06-08T19:20:55.599Z,9.50
2018-06-08T19:23:24.561Z,9.23
2018-06-08T19:25:53.206Z,10.23
2018-06-08T19:28:21.812Z,9.40
2018-06-08T19:30:50.646Z,9.93
2018-06-08T19:33:19.792Z,10.07
2018-06-08T19:35:48.606Z,9.60
2018-06-08T19:38:17.234Z,9.93
2018-06-08T19:40:45.854Z,13.27
2018-06-08T19:43:14.945Z,10.70
2018-06-08T19:45:43.534Z,12.10
2018-06-08T19:48:13.849Z,12.73
2018-06-08T19:50:42.360Z,11.73
2018-06-08T19:53:12.676Z,12.07
2018-06-08T19:55:42.035Z,12.35
2018-06-08T19:58:14.338Z,11.88
2018-06-08T20:00:45.042Z,12.70
2018-06-08T20:03:13.629Z,12.53
2018-06-08T20:05:42.163Z,14.00
2018-06-08T20:08:10.655Z,13.30
2018-06-08T20:10:39.294Z,12.80
2018-06-08T20:13:07.797Z,12.43
2018-06-08T20:15:37.726Z,13.73
2018-06-08T20:18:07.054Z,14.55
2018-06-08T20:20:36.550Z,14.10
2018-06-08T20:23:05.302Z,16.43
2018-06-08T20:25:33.930Z,15.93
2018-06-08T20:28:02.589Z,15.20
2018-06-08T20:30:31.332Z,15.40
2018-06-08T20:33:00.533Z,16.03
2018-06-08T20:35:29.050Z,15.43
2018-06-08T20:37:58.577Z,17.30
2018-06-08T20:40:27.107Z,16.80
2018-06-08T20:42:55.703Z,18.80
2018-06-08T20:45:26.823Z,18.87
2018-06-08T20:47:55.328Z,17.27
2018-06-08T20:50:27.644Z,18.60
2018-06-08T20:52:57.977Z,20.80
2018-06-08T20:55:28.107Z,17.87
2018-06-08T20:58:15.296Z,18.80
2018-06-08T21:00:44.283Z,19.03
2018-06-08T21:03:13.492Z,19.30
2018-06-08T21:05:42.129Z,21.13
2018-06-08T21:08:11.358Z,22.93
2018-06-08T21:10:39.910Z,22.87
2018-06-08T21:13:08.590Z,21.13
2018-06-08T21:15:37.112Z,23.50
2018-06-08T21:18:05.815Z,23.25
2018-06-08T21:20:34.495Z,23.30
2018-06-08T21:23:03.136Z,22.07
2018-06-08T21:25:31.682Z,23.53
2018-06-08T21:28:00.269Z,24.60
2018-06-08T21:30:28.791Z,26.80
2018-06-08T21:32:57.976Z,26.10
2018-06-08T21:35:28.910Z,28.47
2018-06-08T21:37:57.473Z,29.80
2018-06-08T21:40:26.067Z,27.90
2018-06-08T21:42:54.613Z,28.90
2018-06-08T21:45:23.683Z,27.70
2018-06-08T21:47:52.195Z,29.40
2018-06-08T21:50:20.717Z,28.20
2018-06-08T21:52:49.279Z,26.00
2018-06-08T21:55:17.836Z,27.80
2018-06-08T21:57:46.423Z,24.80
2018-06-08T22:00:15.329Z,27.40
2018-06-08T22:02:44.305Z,26.97
2018-06-08T22:05:13.416Z,25.97
2018-06-08T22:07:42.014Z,24.97
2018-06-08T22:10:10.542Z,27.40
2018-06-08T22:12:39.047Z,24.60
2018-06-08T22:15:07.653Z,25.50
2018-06-08T22:17:36.162Z,25.33
2018-06-08T22:20:05.052Z,24.90
2018-06-08T22:22:33.734Z,24.77
2018-06-08T22:25:02.269Z,24.50
2018-06-08T22:27:31.055Z,23.65
2018-06-08T22:29:59.684Z,23.75
2018-06-08T22:32:28.236Z,23.63
2018-06-08T22:34:56.740Z,23.57
2018-06-08T22:37:25.245Z,22.47
2018-06-08T22:39:54.349Z,22.73
2018-06-08T22:42:23.312Z,25.68
2018-06-08T22:44:52.209Z,25.17
2018-06-08T22:47:20.959Z,24.30
2018-06-08T22:49:54.595Z,24.20
2018-06-08T22:52:25.699Z,23.67
2018-06-08T22:54:55.460Z,23.43
2018-06-08T22:57:29.562Z,23.70
2018-06-08T22:59:59.851Z,23.90
2018-06-08T23:02:30.781Z,25.40
2018-06-08T23:05:00.533Z,24.43
2018-06-08T23:07:30.768Z,24.80
2018-06-08T23:10:00.414Z,23.57
2018-06-08T23:12:30.152Z,24.00
2018-06-08T23:15:00.875Z,23.73
2018-06-08T23:17:30.355Z,23.65
2018-06-08T23:20:02.204Z,24.67
2018-06-08T23:22:32.193Z,24.17
2018-06-08T23:25:03.663Z,24.98
2018-06-08T23:27:33.849Z,22.47
2018-06-08T23:30:05.745Z,23.73
2018-06-08T23:32:37.465Z,23.50
2018-06-08T23:35:07.968Z,24.33
2018-06-08T23:37:38.606Z,24.97
2018-06-08T23:40:09.818Z,23.47
2018-06-08T23:42:40.618Z,23.80
2018-06-08T23:45:10.374Z,24.13
2018-06-08T23:47:39.754Z,23.50
2018-06-08T23:50:11.203Z,24.93
2018-06-08T23:52:41.027Z,24.37
2018-06-08T23:55:11.660Z,22.90
2018-06-08T23:57:41.858Z,21.90
